createdAt,value
2024-02-28T00:03:57.442Z,101618.25
2024-02-28T00:07:58.328Z,101628.91
2024-02-28T00:12:10.088Z,101631.50
2024-02-28T00:16:10.264Z,101620.56
2024-02-28T00:20:12.897Z,101613.38
2024-02-28T00:24:12.776Z,101613.81
2024-02-28T00:28:16.401Z,101631.59
2024-02-28T00:32:20.886Z,101632.72
2024-02-28T00:36:22.071Z,101611.09
2024-02-28T00:40:23.435Z,101625.56
2024-02-28T00:44:25.855Z,101611.53
2024-02-28T00:48:27.139Z,101608.41
2024-02-28T00:52:28.962Z,101623.13
2024-02-28T00:56:29.795Z,101634.28
2024-02-28T01:00:32.558Z,101619.94
2024-02-28T01:04:35.896Z,101606.34
2024-02-28T01:08:38.482Z,101615.53
2024-02-28T01:13:07.679Z,101626.38
2024-02-28T01:17:14.768Z,101619.13
2024-02-28T01:21:57.001Z,101567.66
2024-02-28T01:26:06.844Z,101611.78
2024-02-28T01:30:29.850Z,101618.78
2024-02-28T01:34:36.314Z,101613.47
2024-02-28T01:38:36.879Z,101625.09
2024-02-28T01:42:36.553Z,101634.50
2024-02-28T01:46:36.615Z,101624.81
2024-02-28T01:50:40.064Z,101629.31
2024-02-28T01:54:40.058Z,101632.63
2024-02-28T01:58:40.967Z,101613.59
2024-02-28T02:02:41.386Z,101636.97
2024-02-28T02:06:48.160Z,101640.19
2024-02-28T02:10:50.985Z,101639.63
2024-02-28T02:14:52.278Z,101646.50
2024-02-28T02:18:53.113Z,101638.75
2024-02-28T02:22:55.116Z,101648.13
2024-02-28T02:26:58.728Z,101654.16
2024-02-28T02:31:00.476Z,101657.38
2024-02-28T02:35:03.944Z,101652.06
2024-02-28T02:39:06.150Z,101650.50
2024-02-28T02:43:06.426Z,101652.91
2024-02-28T02:47:06.726Z,101663.50
2024-02-28T02:51:06.246Z,101652.84
2024-02-28T02:55:10.698Z,101667.75
2024-02-28T02:59:11.370Z,101669.31
2024-02-28T03:03:10.965Z,101637.16
2024-02-28T03:07:11.684Z,101664.28
2024-02-28T03:11:15.115Z,101679.06
2024-02-28T03:15:14.743Z,101684.41
2024-02-28T03:19:15.666Z,101686.69
2024-02-28T03:23:15.443Z,101674.97
2024-02-28T03:27:17.706Z,101684.97
2024-02-28T03:31:22.591Z,101707.38
2024-02-28T03:35:22.476Z,101632.53
2024-02-28T03:39:22.698Z,101702.28
2024-02-28T03:43:24.835Z,101706.66
2024-02-28T03:47:25.496Z,101717.63
2024-02-28T03:51:26.932Z,101724.09
2024-02-28T03:55:27.145Z,101709.63
2024-02-28T03:59:30.073Z,101727.06
2024-02-28T04:03:30.886Z,101713.09
2024-02-28T04:07:31.013Z,101726.41
2024-02-28T04:11:31.409Z,101729.91
2024-02-28T04:15:34.178Z,101735.13
2024-02-28T04:19:38.131Z,101734.72
2024-02-28T04:23:39.342Z,101741.25
2024-02-28T04:27:38.815Z,101682.50
2024-02-28T04:31:41.546Z,101735.25
2024-02-28T04:35:51.352Z,101741.28
2024-02-28T04:39:51.209Z,101702.09
2024-02-28T04:43:59.753Z,101757.25
2024-02-28T04:48:09.432Z,101753.72
2024-02-28T04:52:09.754Z,101748.59
2024-02-28T04:56:10.101Z,101711.34
2024-02-28T05:00:11.013Z,101765.22
2024-02-28T05:04:17.087Z,101754.75
2024-02-28T05:08:35.969Z,101775.19
2024-02-28T05:12:35.890Z,101769.31
2024-02-28T05:16:35.798Z,101772.25
2024-02-28T05:20:41.878Z,101772.88
2024-02-28T05:24:52.951Z,101782.41
2024-02-28T05:28:54.996Z,101778.38
2024-02-28T05:33:02.581Z,101779.75
2024-02-28T05:37:06.833Z,101795.94
2024-02-28T05:41:07.426Z,101766.63
2024-02-28T05:45:08.690Z,101801.69
2024-02-28T05:49:08.903Z,101801.00
2024-02-28T05:53:13.694Z,101782.88
2024-02-28T05:57:14.771Z,101810.25
2024-02-28T06:01:15.673Z,101790.19
2024-02-28T06:05:16.217Z,101817.75
2024-02-28T06:09:25.666Z,101789.84
2024-02-28T06:13:27.971Z,101767.28
2024-02-28T06:17:29.733Z,101793.59
2024-02-28T06:21:33.041Z,101818.63
2024-02-28T06:25:35.678Z,101830.75
2024-02-28T06:29:40.757Z,101751.06
2024-02-28T06:33:51.507Z,101754.41
2024-02-28T06:37:52.834Z,101839.09
2024-02-28T06:41:58.311Z,101830.47
2024-02-28T06:46:04.756Z,101830.72
2024-02-28T06:50:05.054Z,101832.81
2024-02-28T06:54:13.957Z,101834.03
2024-02-28T06:58:28.596Z,101846.25
2024-02-28T07:02:29.592Z,101837.25
2024-02-28T07:07:11.207Z,101856.72
2024-02-28T07:11:56.184Z,101863.03
2024-02-28T07:16:22.785Z,101866.69
2024-02-28T07:20:25.552Z,101866.50
2024-02-28T07:24:25.344Z,101865.06
2024-02-28T07:28:27.756Z,101867.22
2024-02-28T07:32:47.100Z,101843.16
2024-02-28T07:36:54.781Z,101860.38
2024-02-28T07:40:53.823Z,101860.63
2024-02-28T07:44:57.540Z,101854.41
2024-02-28T07:48:59.543Z,101840.81
2024-02-28T07:52:59.073Z,101850.84
2024-02-28T07:56:58.839Z,101858.34
2024-02-28T08:00:58.278Z,101859.63
2024-02-28T08:05:00.303Z,101858.81
2024-02-28T08:09:00.104Z,101849.47
2024-02-28T08:13:00.106Z,101846.38
2024-02-28T08:17:02.783Z,101850.50
2024-02-28T08:21:05.807Z,101843.72
2024-02-28T08:25:05.229Z,101852.88
2024-02-28T08:29:05.156Z,101847.78
2024-02-28T08:33:04.509Z,101847.56
2024-02-28T08:37:06.775Z,101850.28
2024-02-28T08:41:07.998Z,101839.69
2024-02-28T08:45:08.850Z,101861.13
2024-02-28T08:49:09.651Z,101856.44
2024-02-28T08:53:11.121Z,101820.47
2024-02-28T08:57:11.138Z,101848.31
2024-02-28T09:01:11.140Z,101790.09
2024-02-28T09:05:12.403Z,101861.97
2024-02-28T09:09:14.897Z,101861.16
2024-02-28T09:13:14.724Z,101864.19
2024-02-28T09:17:14.660Z,101831.03
2024-02-28T09:21:16.329Z,101857.13
2024-02-28T09:25:19.063Z,101832.16
2024-02-28T09:29:19.320Z,101847.06
2024-02-28T09:33:21.402Z,101850.09
2024-02-28T09:37:22.307Z,101854.81
2024-02-28T09:41:27.523Z,101853.78
2024-02-28T09:45:27.691Z,101875.41
2024-02-28T09:49:30.046Z,101876.25
2024-02-28T09:53:30.672Z,101864.19
2024-02-28T09:57:34.257Z,101855.63
2024-02-28T10:01:35.569Z,101859.88
2024-02-28T10:05:37.291Z,101854.78
2024-02-28T10:09:36.992Z,101834.31
2024-02-28T10:13:39.344Z,101818.69
2024-02-28T10:17:39.360Z,101835.25
2024-02-28T10:21:39.030Z,101832.78
2024-02-28T10:25:52.215Z,101825.69
2024-02-28T10:29:59.427Z,101830.06
2024-02-28T10:33:59.383Z,101809.59
2024-02-28T10:37:59.369Z,101810.22
2024-02-28T10:42:02.705Z,101798.34
2024-02-28T10:46:25.600Z,101804.66
2024-02-28T10:50:24.864Z,101780.66
2024-02-28T10:54:38.272Z,101771.19
2024-02-28T10:59:13.235Z,101765.75
2024-02-28T11:03:39.345Z,101773.44
2024-02-28T11:07:59.215Z,101766.44
2024-02-28T11:12:00.870Z,101763.94
2024-02-28T11:16:15.115Z,101752.69
2024-02-28T11:20:25.486Z,101757.91
2024-02-28T11:24:28.643Z,101750.59
2024-02-28T11:28:44.034Z,101743.34
2024-02-28T11:32:48.315Z,101731.94
2024-02-28T11:37:12.697Z,101722.09
2024-02-28T11:41:18.454Z,101728.53
2024-02-28T11:45:32.827Z,101707.16
2024-02-28T11:50:04.898Z,101728.44
2024-02-28T11:54:13.859Z,101710.13
2024-02-28T11:58:36.668Z,101707.56
2024-02-28T12:02:45.192Z,101698.06
2024-02-28T12:06:46.730Z,101702.09
2024-02-28T12:10:51.915Z,101685.06
2024-02-28T12:14:51.901Z,101668.94
2024-02-28T12:18:51.901Z,101687.81
2024-02-28T12:22:52.154Z,101681.19
2024-02-28T12:26:54.369Z,101678.84
2024-02-28T12:31:02.877Z,101664.19
2024-02-28T12:35:14.175Z,101662.78
2024-02-28T12:39:24.209Z,101669.78
2024-02-28T12:44:21.678Z,101665.53
2024-02-28T12:48:25.713Z,101657.31
2024-02-28T12:52:25.483Z,101604.94
2024-02-28T12:56:26.998Z,101641.16
2024-02-28T13:00:27.282Z,101632.25
2024-02-28T13:04:33.115Z,101644.84
2024-02-28T13:13:00.073Z,101632.69
2024-02-28T13:17:02.722Z,101642.38
2024-02-28T13:21:20.480Z,101634.72
2024-02-28T13:25:22.413Z,101634.75
2024-02-28T13:29:29.103Z,101638.16
2024-02-28T13:34:16.208Z,101627.66
2024-02-28T13:38:20.533Z,101633.63
2024-02-28T13:42:22.690Z,101625.03
2024-02-28T13:46:23.807Z,101632.13
2024-02-28T13:50:34.803Z,101605.13
2024-02-28T13:55:12.806Z,101599.88
2024-02-28T13:59:12.391Z,101604.31
2024-02-28T14:03:18.300Z,101591.09
2024-02-28T14:07:22.352Z,101595.34
2024-02-28T14:11:25.891Z,101602.34
2024-02-28T14:15:28.365Z,101559.41
2024-02-28T14:19:28.598Z,101592.88
2024-02-28T14:23:28.786Z,101589.34
2024-02-28T14:27:36.941Z,101593.81
2024-02-28T14:31:37.080Z,101587.59
2024-02-28T14:35:40.139Z,101595.47
2024-02-28T14:39:42.857Z,101596.38
2024-02-28T14:43:44.387Z,101601.69
2024-02-28T14:47:44.855Z,101549.84
2024-02-28T14:51:49.194Z,101603.53
2024-02-28T14:55:49.841Z,101602.69
2024-02-28T14:59:51.946Z,101603.53
2024-02-28T15:03:54.447Z,101595.50
2024-02-28T15:07:55.815Z,101614.72
2024-02-28T15:11:56.068Z,101620.94
2024-02-28T15:16:01.049Z,101592.66
2024-02-28T15:20:03.550Z,101589.09
2024-02-28T15:24:03.350Z,101600.44
2024-02-28T15:28:03.828Z,101610.94
2024-02-28T15:32:06.264Z,101599.41
2024-02-28T15:36:08.154Z,101615.22
2024-02-28T15:40:11.725Z,101623.06
2024-02-28T15:44:13.669Z,101626.41
2024-02-28T15:48:20.392Z,101632.59
2024-02-28T15:52:23.262Z,101629.81
2024-02-28T15:56:25.876Z,101630.50
2024-02-28T16:00:26.102Z,101616.38
2024-02-28T16:04:28.754Z,101634.81
2024-02-28T16:08:29.726Z,101642.63
2024-02-28T16:12:37.343Z,101631.09
2024-02-28T16:16:38.083Z,101643.38
2024-02-28T16:20:40.261Z,101636.19
2024-02-28T16:24:41.028Z,101628.31
2024-02-28T16:28:44.711Z,101596.50
2024-02-28T16:32:46.663Z,101629.91
2024-02-28T16:36:49.629Z,101625.31
2024-02-28T16:40:49.608Z,101634.09
2024-02-28T16:44:52.974Z,101648.06
2024-02-28T16:48:54.399Z,101647.97
2024-02-28T16:52:58.970Z,101643.44
2024-02-28T16:57:07.747Z,101631.00
2024-02-28T17:01:17.587Z,101642.53
2024-02-28T17:05:17.945Z,101646.03
2024-02-28T17:09:20.178Z,101600.38
2024-02-28T17:13:58.443Z,101633.84
2024-02-28T17:17:58.196Z,101654.81
2024-02-28T17:21:58.682Z,101586.06
2024-02-28T17:26:01.778Z,101646.88
2024-02-28T17:30:05.872Z,101652.94
2024-02-28T17:34:06.219Z,101608.84
2024-02-28T17:38:06.809Z,101656.91
2024-02-28T17:42:10.464Z,101654.16
2024-02-28T17:46:14.070Z,101657.59
2024-02-28T17:50:14.327Z,101650.44
2024-02-28T17:54:15.143Z,101653.06
2024-02-28T17:58:17.517Z,101647.63
2024-02-28T18:02:17.936Z,101655.28
2024-02-28T18:06:19.478Z,101616.28
2024-02-28T18:10:18.701Z,101656.53
2024-02-28T18:14:21.135Z,101654.63
2024-02-28T18:18:20.980Z,101651.88
2024-02-28T18:22:20.680Z,101656.22
2024-02-28T18:26:40.240Z,101655.97
2024-02-28T18:31:03.009Z,101644.38
2024-02-28T18:35:05.636Z,101654.09
2024-02-28T18:39:07.075Z,101638.13
2024-02-28T18:43:07.711Z,101656.78
2024-02-28T18:47:09.644Z,101638.31
2024-02-28T18:51:09.921Z,101656.97
2024-02-28T18:55:10.314Z,101590.03
2024-02-28T18:59:10.288Z,101605.94
2024-02-28T19:03:12.787Z,101644.81
2024-02-28T19:07:14.110Z,101639.34
2024-02-28T19:11:13.728Z,101571.06
2024-02-28T19:15:13.915Z,101632.00
2024-02-28T19:19:19.602Z,101651.50
2024-02-28T19:23:36.549Z,101657.38
2024-02-28T19:27:36.273Z,101662.50
2024-02-28T19:31:35.884Z,101666.75
2024-02-28T19:35:38.091Z,101660.72
2024-02-28T19:39:37.763Z,101670.53
2024-02-28T19:43:37.750Z,101659.25
2024-02-28T19:47:37.797Z,101669.00
2024-02-28T19:51:42.119Z,101661.19
2024-02-28T19:55:44.530Z,101675.66
2024-02-28T19:59:45.629Z,101675.25
2024-02-28T20:03:45.438Z,101670.94
2024-02-28T20:07:47.533Z,101674.06
2024-02-28T20:11:47.611Z,101683.47
2024-02-28T20:16:41.352Z,101693.00
2024-02-28T20:20:43.556Z,101688.84
2024-02-28T20:24:46.299Z,101690.56
2024-02-28T20:28:46.461Z,101683.53
2024-02-28T20:32:47.159Z,101684.88
2024-02-28T20:36:51.178Z,101690.44
2024-02-28T20:40:54.519Z,101690.97
2024-02-28T20:45:01.164Z,101681.94
2024-02-28T20:49:08.698Z,101683.47
2024-02-28T20:53:08.720Z,101679.75
2024-02-28T20:57:16.437Z,101663.97
2024-02-28T21:01:19.001Z,101633.72
2024-02-28T21:05:19.358Z,101683.19
2024-02-28T21:09:19.285Z,101695.97
2024-02-28T21:13:20.734Z,101699.31
2024-02-28T21:17:23.302Z,101699.84
2024-02-28T21:21:23.944Z,101701.50
2024-02-28T21:25:23.616Z,101702.28
2024-02-28T21:29:25.474Z,101706.19
2024-02-28T21:33:25.298Z,101707.00
2024-02-28T21:37:25.073Z,101713.19
2024-02-28T21:41:24.749Z,101709.84
2024-02-28T21:45:26.685Z,101713.53
2024-02-28T21:49:26.491Z,101704.28
2024-02-28T21:53:27.155Z,101709.88
2024-02-28T21:57:27.100Z,101716.25
2024-02-28T22:01:28.811Z,101720.13
2024-02-28T22:05:28.451Z,101726.34
2024-02-28T22:09:27.758Z,101734.66
2024-02-28T22:13:29.173Z,101727.31
2024-02-28T22:17:30.913Z,101737.16
2024-02-28T22:21:30.530Z,101726.66
2024-02-28T22:25:30.453Z,101729.44
2024-02-28T22:29:29.991Z,101727.19
2024-02-28T22:33:31.439Z,101718.75
2024-02-28T22:37:31.024Z,101725.47
2024-02-28T22:41:30.397Z,101719.44
2024-02-28T22:45:30.045Z,101724.41
2024-02-28T22:49:31.543Z,101719.19
2024-02-28T22:53:31.173Z,101726.22
2024-02-28T22:57:30.510Z,101718.47
2024-02-28T23:01:30.228Z,101721.09
2024-02-28T23:05:32.193Z,101718.31
2024-02-28T23:09:32.013Z,101723.28
2024-02-28T23:13:32.920Z,101718.94
2024-02-28T23:17:32.957Z,101684.97
2024-02-28T23:21:38.445Z,101717.03
2024-02-28T23:25:38.214Z,101653.94
2024-02-28T23:29:37.481Z,101692.72
2024-02-28T23:33:37.250Z,101729.13
2024-02-28T23:37:39.526Z,101722.97
2024-02-28T23:41:39.789Z,101723.84
2024-02-28T23:45:39.556Z,101717.56
2024-02-28T23:49:40.337Z,101722.69
2024-02-28T23:53:42.340Z,101726.47
2024-02-28T23:57:43.136Z,101723.72
